Marysville, Iowa
Current Conditions -  °F | °C
As of 3:55 PM on Monday 22 Dec 2014 (Local Time) from KOXV Reporting Station
Haze Haze  
Wind Chill: 33°   Ceiling: 300
Heat Index: 39°   Visibility: 1mi
Dew Point: 37°   Wind: 9mph
Humidity: 93%   Direction: 120°ESE
Pressure: 29.46"   Gusts: NA
Location:  41.1765°N, 92.9326°W
Report Text: KOXV 222155Z AUTO 12008KT 1SM BR OVC003 04/03 A2946 RMK AO2
Loading
Personal Weather Stations






























Interactive Weather Map New forecast layout! Learn more

10-Day Weather Forecast

Advertisements
Track Severe Weather on mobile